Calvin, KY (40813)

1:27 AM EDT on July 23, 2014 (GMT -0400)
Colmar (KKYMIDDL2) Elev 1135 ft | 36.66 °N, 83.67 °W | Change Station

Current weather conditions updated 7 seconds ago

Rain
Rain
70.1 °F
Feels Like 70.1 °F
N
0.0
Wind Variable Wind from SSE

Today is forecast to be Cooler than yesterday. Afternoon thunderstorms.

Today
High -- | Low -- °F
--% Chance of Precip.
Yesterday
High -- | Low -- °F
Precip. -- in
6:33 AM 8:48 PM
Waning Crescent, 12% visible
Pressure 30.12 in
Visibility 10.0 miles
Clouds Clear
Dew Point 69 °F
Humidity 95%
Rainfall 0.00 in
Snow Depth Not available.
UV 0 out of 12
Pollen 3.40 out of 12
Air Quality Not available.
Flu Activity Not available.
METAR K1A6 230515Z AUTO 00000KT 10SM CLR 21/20 A3012 RMK AO2 T02100203

More Conditions Fewer Conditions

Pressure 30.12 in
Visibility 10.0 miles
Clouds Clear
Dew Point 69 °F
Humidity 95%
Rainfall 0.00 in
Snow Depth Not available.
UV 0 out of 12
Pollen 3.40 out of 12
Air Quality Not available.
Flu Activity Not available.
METAR K1A6 230515Z AUTO 00000KT 10SM CLR 21/20 A3012 RMK AO2 T02100203

More Conditions Fewer Conditions

10-Day Weather Forecast

Almanac

Astronomy

Jul. 23, 2014 Rise Set
Actual Time 6:33 AM EDT 8:48 PM EDT
Civil Twilight 6:04 AM EDT 9:18 PM EDT
Nautical Twilight 5:28 AM EDT 9:53 PM EDT
Astronomical Twilight 4:49 AM EDT 10:32 PM EDT
Moon 3:51 AM EDT 6:17 PM EDT
Length of Visible Light 15h 13m
Length of Day
14h 14m
Tomorrow will be 1m 30s shorter.
Waning Crescent, 12% of the Moon is Illuminated
Today
Waning Crescent
Jul 26
New
Aug 3
First Quarter
Aug 10
Full
Aug 17
Last Quarter

Today's Extremes

State Highs State Lows

Community

WunderPhotos

Upload Photos

1,736,513 photos uploaded!

Nearby

Snow Depth

Station Depth Elevation
No new snow has been reported.

Earthquake Activity

City Distance Mag. Time & Date
No recent earthquake activity has been reported nearby.
Minimum magnitude displayed is 2.5.

Coastal Water Temperatures

Place Temperature
No Stations Reporting

Nearby Weather Stations

Station Location Temp. Heat Index Dew Point Humidity Wind Precip. Elev Updated Type
Colmar, Middlesboro, KY 70.1 °F - 69 °F 95% SSE  at  0.0 mph - / hr 1135 ft 1:27 AM EDT Normal
liford's, Barbourville, KY 71.4 °F - 71 °F 99% NNW  at  0.0 mph - / hr 1066 ft 1:23 AM EDT Normal
Mackey Bend, Barbourville, KY 70.3 °F - 70 °F 99% NNE  at  0.0 mph 0.00 in / hr 1020 ft 1:26 AM EDT Rapid Fire
RAWS CHUCK SWAN SF TN, Sharps Chapel, TN 76 °F 77 °F 69 °F 79% South  at  1 mph 0.00 in / hr 1657 ft 12:05 AM EDT MADIS

Show More Stations Show Fewer Stations